createdAt,value
2018-05-10T00:00:10.703Z,100135.73
2018-05-10T00:03:13.195Z,100141.70
2018-05-10T00:06:15.694Z,100146.67
2018-05-10T00:09:18.221Z,100144.95
2018-05-10T00:12:20.760Z,100142.44
2018-05-10T00:15:23.315Z,100147.61
2018-05-10T00:18:25.848Z,100139.77
2018-05-10T00:21:28.360Z,100140.56
2018-05-10T00:24:30.880Z,100136.89
2018-05-10T00:27:33.406Z,100135.91
2018-05-10T00:30:36.773Z,100133.19
2018-05-10T00:33:39.852Z,100128.95
2018-05-10T00:36:42.379Z,100127.36
2018-05-10T00:39:44.874Z,100118.75
2018-05-10T00:42:47.374Z,100120.87
2018-05-10T00:45:50.609Z,100121.94
2018-05-10T00:48:53.214Z,100123.13
2018-05-10T00:51:55.734Z,100125.61
2018-05-10T00:54:58.270Z,100125.18
2018-05-10T00:58:00.792Z,100118.93
2018-05-10T01:01:03.375Z,100120.99
2018-05-10T01:04:05.927Z,100123.38
2018-05-10T01:07:08.460Z,100121.91
2018-05-10T01:10:10.991Z,100122.44
2018-05-10T01:13:13.521Z,100120.50
2018-05-10T01:16:16.087Z,100115.30
2018-05-10T01:19:18.650Z,100112.32
2018-05-10T01:22:21.213Z,100117.87
2018-05-10T01:25:23.757Z,100119.80
2018-05-10T01:28:26.358Z,100118.47
2018-05-10T01:31:29.497Z,100117.67
2018-05-10T01:34:32.091Z,100119.72
2018-05-10T01:37:34.632Z,100118.93
2018-05-10T01:40:37.211Z,100125.45
2018-05-10T01:43:39.856Z,100117.00
2018-05-10T01:46:42.453Z,100125.85
2018-05-10T01:49:45.019Z,100129.34
2018-05-10T01:52:47.571Z,100127.27
2018-05-10T01:55:50.103Z,100137.16
2018-05-10T01:58:52.639Z,100143.27
2018-05-10T02:01:55.201Z,100138.94
2018-05-10T02:04:57.694Z,100137.20
2018-05-10T02:08:00.191Z,100131.31
2018-05-10T02:11:02.755Z,100134.88
2018-05-10T02:14:05.292Z,100122.95
2018-05-10T02:17:07.823Z,100119.72
2018-05-10T02:20:10.359Z,100126.83
2018-05-10T02:23:12.886Z,100130.84
2018-05-10T02:26:15.441Z,100130.52
2018-05-10T02:29:17.971Z,100120.25
2018-05-10T02:32:20.478Z,100124.06
2018-05-10T02:35:23.045Z,100118.93
2018-05-10T02:38:25.560Z,100126.44
2018-05-10T05:19:28.265Z,100133.61
2018-05-10T05:22:30.804Z,100125.98
2018-05-10T05:25:33.302Z,100129.41
2018-05-10T05:28:35.873Z,100135.42
2018-05-10T05:31:41.568Z,100127.12
2018-05-10T05:34:44.135Z,100124.85
2018-05-10T05:37:47.712Z,100133.13
2018-05-10T05:40:50.255Z,100131.72
2018-05-10T05:43:53.115Z,100133.59
2018-05-10T05:46:57.381Z,100136.84
2018-05-10T05:50:05.636Z,100138.25
2018-05-10T05:53:13.126Z,100143.55
2018-05-10T05:59:37.441Z,100146.36
2018-05-10T06:02:40.085Z,100151.17
2018-05-10T06:05:42.630Z,100144.49
2018-05-10T06:08:46.004Z,100153.50
2018-05-10T06:11:48.485Z,100159.23
2018-05-10T06:14:51.047Z,100163.01
2018-05-10T06:17:55.512Z,100158.77
2018-05-10T06:20:58.216Z,100171.00
2018-05-10T06:24:00.755Z,100164.81
2018-05-10T06:27:03.326Z,100164.27
2018-05-10T06:30:05.893Z,100166.75
2018-05-10T06:33:08.439Z,100158.05
2018-05-10T06:36:10.936Z,100158.11
2018-05-10T06:39:13.451Z,100171.02
2018-05-10T06:42:15.989Z,100172.86
2018-05-10T06:45:18.516Z,100170.95
2018-05-10T06:48:21.037Z,100169.63
2018-05-10T06:51:23.605Z,100170.48
2018-05-10T06:54:26.151Z,100176.17
2018-05-10T06:57:28.708Z,100178.11
2018-05-10T07:00:32.090Z,100169.34
2018-05-10T07:03:34.697Z,100171.22
2018-05-10T07:06:37.250Z,100171.72
2018-05-10T07:09:39.940Z,100183.98
2018-05-10T07:12:42.386Z,100180.12
2018-05-10T07:15:45.018Z,100180.20
2018-05-10T07:18:47.602Z,100177.84
2018-05-10T07:21:50.118Z,100177.58
2018-05-10T07:24:52.717Z,100179.75
2018-05-10T07:27:55.269Z,100179.60
2018-05-10T07:30:57.801Z,100175.52
2018-05-10T07:34:00.371Z,100180.78
2018-05-10T07:37:02.930Z,100178.33
2018-05-10T07:40:05.490Z,100180.02
2018-05-10T07:43:08.086Z,100176.35
2018-05-10T07:46:10.628Z,100176.71
2018-05-10T07:49:13.263Z,100174.73
2018-05-10T07:52:15.897Z,100178.63
2018-05-10T07:55:28.153Z,100174.05
2018-05-10T07:58:32.647Z,100181.02
2018-05-10T08:01:35.203Z,100171.05
2018-05-10T08:04:37.759Z,100176.60
2018-05-10T08:07:40.308Z,100182.20
2018-05-10T08:10:42.904Z,100182.53
2018-05-10T08:13:45.527Z,100188.97
2018-05-10T08:16:48.269Z,100186.52
2018-05-10T08:19:50.923Z,100181.81
2018-05-10T08:22:54.527Z,100184.57
2018-05-10T08:25:57.137Z,100185.70
2018-05-10T08:28:59.703Z,100181.47
2018-05-10T08:32:02.287Z,100177.80
2018-05-10T08:35:05.699Z,100176.45
2018-05-10T08:38:08.236Z,100171.19
2018-05-10T08:41:10.910Z,100170.34
2018-05-10T08:44:13.422Z,100180.79
2018-05-10T08:47:17.861Z,100168.08
2018-05-10T08:50:20.416Z,100168.58
2018-05-10T08:53:22.952Z,100167.20
2018-05-10T08:56:25.464Z,100160.42
2018-05-10T08:59:28.002Z,100170.45
2018-05-10T09:02:30.576Z,100176.72
2018-05-10T09:05:33.152Z,100176.05
2018-05-10T09:08:35.670Z,100167.53
2018-05-10T09:11:38.215Z,100176.53
2018-05-10T09:14:40.741Z,100174.04
2018-05-10T09:17:43.287Z,100172.23
2018-05-10T09:20:45.826Z,100171.86
2018-05-10T09:23:48.353Z,100171.43
2018-05-10T09:26:50.909Z,100172.02
2018-05-10T09:29:53.521Z,100168.94
2018-05-10T09:32:56.312Z,100165.67
2018-05-10T09:35:58.919Z,100161.16
2018-05-10T09:39:01.670Z,100160.72
2018-05-10T09:42:05.388Z,100163.73
2018-05-10T09:45:08.014Z,100157.30
2018-05-10T09:48:10.590Z,100159.72
2018-05-10T09:51:13.198Z,100160.11
2018-05-10T09:54:15.782Z,100165.38
2018-05-10T09:57:18.310Z,100160.70
2018-05-10T10:00:26.417Z,100165.17
2018-05-10T10:03:28.985Z,100158.56
2018-05-10T10:06:31.672Z,100163.73
2018-05-10T10:09:34.321Z,100168.00
2018-05-10T10:12:36.917Z,100170.20
2018-05-10T10:15:39.481Z,100159.58
2018-05-10T10:18:42.007Z,100162.96
2018-05-10T10:21:44.535Z,100160.02
2018-05-10T10:24:47.104Z,100158.27
2018-05-10T10:27:49.661Z,100158.73
2018-05-10T10:30:52.221Z,100155.56
2018-05-10T10:33:54.731Z,100160.91
2018-05-10T10:36:57.272Z,100157.82
2018-05-10T10:39:59.915Z,100157.64
2018-05-10T10:43:02.497Z,100158.11
2018-05-10T10:46:05.007Z,100161.99
2018-05-10T10:49:07.551Z,100159.47
2018-05-10T10:52:10.064Z,100151.41
2018-05-10T10:55:12.630Z,100158.07
2018-05-10T10:58:15.181Z,100156.70
2018-05-10T11:01:17.721Z,100160.17
2018-05-10T11:04:21.165Z,100156.67
2018-05-10T11:07:23.687Z,100158.72
2018-05-10T11:10:26.236Z,100160.02
2018-05-10T11:13:28.761Z,100163.43
2018-05-10T11:16:31.321Z,100158.20
2018-05-10T11:19:33.858Z,100158.98
2018-05-10T11:22:36.389Z,100156.47
2018-05-10T11:25:38.983Z,100161.30
2018-05-10T11:28:41.557Z,100168.95
2018-05-10T11:31:44.121Z,100162.16
2018-05-10T11:34:46.922Z,100165.92
2018-05-10T11:37:49.482Z,100165.31
2018-05-10T11:40:52.029Z,100168.61
2018-05-10T11:43:54.560Z,100159.33
2018-05-10T11:46:57.110Z,100167.03
2018-05-10T11:49:59.678Z,100156.30
2018-05-10T11:53:02.201Z,100155.23
2018-05-10T11:56:04.852Z,100161.22
2018-05-10T11:59:07.405Z,100155.16
2018-05-10T12:02:09.937Z,100164.97
2018-05-10T12:05:12.588Z,100160.77
2018-05-10T12:08:15.087Z,100163.43
2018-05-10T12:11:17.840Z,100161.84
2018-05-10T12:14:20.383Z,100158.48
2018-05-10T12:17:22.913Z,100154.23
2018-05-10T12:20:25.554Z,100161.02
2018-05-10T12:23:28.070Z,100156.70
2018-05-10T12:26:30.660Z,100155.45
2018-05-10T12:29:33.229Z,100153.81
2018-05-10T12:32:35.901Z,100146.24
2018-05-10T12:35:38.488Z,100149.06
2018-05-10T12:38:41.061Z,100149.49
2018-05-10T12:41:43.618Z,100156.71
2018-05-10T12:44:46.203Z,100148.38
2018-05-10T12:47:48.923Z,100146.34
2018-05-10T12:50:51.473Z,100149.89
2018-05-10T12:53:54.010Z,100137.81
2018-05-10T12:56:56.541Z,100143.98
2018-05-10T12:59:59.138Z,100139.56
2018-05-10T13:03:01.627Z,100142.84
2018-05-10T13:06:04.177Z,100137.78
2018-05-10T13:09:06.754Z,100140.55
2018-05-10T13:12:10.480Z,100141.56
2018-05-10T13:15:12.988Z,100136.34
2018-05-10T13:18:15.888Z,100139.27
2018-05-10T13:21:18.491Z,100140.37
2018-05-10T13:24:21.013Z,100127.64
2018-05-10T13:27:23.631Z,100123.94
2018-05-10T13:30:26.109Z,100122.02
2018-05-10T13:33:28.648Z,100124.52
2018-05-10T13:36:31.192Z,100119.02
2018-05-10T13:39:33.723Z,100116.84
2018-05-10T13:42:36.483Z,100111.67
2018-05-10T13:45:39.045Z,100111.98
2018-05-10T13:48:41.578Z,100113.38
2018-05-10T13:51:44.121Z,100114.30
2018-05-10T13:54:46.656Z,100113.92
2018-05-10T13:57:49.259Z,100116.30
2018-05-10T14:00:51.758Z,100124.20
2018-05-10T14:03:54.370Z,100122.00
2018-05-10T14:06:57.543Z,100123.42
2018-05-10T14:10:00.520Z,100127.51
2018-05-10T14:13:03.470Z,100123.48
2018-05-10T14:16:06.087Z,100118.94
2018-05-10T14:19:09.887Z,100133.44
2018-05-10T14:22:12.617Z,100131.89
2018-05-10T14:25:15.415Z,100126.53
2018-05-10T14:28:17.926Z,100124.30
2018-05-10T14:31:20.670Z,100135.33
2018-05-10T14:34:23.233Z,100135.69
2018-05-10T14:37:25.748Z,100139.17
2018-05-10T14:40:28.305Z,100135.59
2018-05-10T14:43:31.495Z,100134.57
2018-05-10T14:46:34.089Z,100145.30
2018-05-10T14:49:36.720Z,100143.23
2018-05-10T14:52:39.271Z,100153.38
2018-05-10T14:55:42.060Z,100146.11
2018-05-10T14:58:44.746Z,100157.23
2018-05-10T15:01:47.503Z,100153.66
2018-05-10T15:04:50.121Z,100164.12
2018-05-10T15:07:52.828Z,100158.64
2018-05-10T15:10:59.936Z,100153.84
2018-05-10T15:14:03.557Z,100151.51
2018-05-10T15:17:23.953Z,100153.77
2018-05-10T15:20:27.314Z,100145.03
2018-05-10T15:24:11.675Z,100145.63
2018-05-10T15:27:15.988Z,100139.25
2018-05-10T15:33:47.769Z,100139.38
2018-05-10T15:36:50.362Z,100143.68
2018-05-10T15:39:53.039Z,100144.97
2018-05-10T15:42:57.875Z,100153.02
2018-05-10T15:46:00.489Z,100156.42
2018-05-10T15:49:03.185Z,100166.70
2018-05-10T15:52:06.866Z,100163.77
2018-05-10T15:55:09.478Z,100169.36
2018-05-10T15:58:14.868Z,100174.16
2018-05-10T16:01:22.520Z,100177.34
2018-05-10T16:04:25.678Z,100181.94
2018-05-10T16:07:29.958Z,100191.62
2018-05-10T16:10:33.872Z,100185.54
2018-05-10T16:13:36.595Z,100189.21
2018-05-10T16:16:42.764Z,100184.38
2018-05-10T16:19:45.557Z,100184.16
2018-05-10T16:22:48.921Z,100186.25
2018-05-10T16:25:52.816Z,100185.41
2018-05-10T16:28:55.404Z,100192.99
2018-05-10T16:31:57.965Z,100191.41
2018-05-10T16:35:00.608Z,100188.97
2018-05-10T16:38:03.990Z,100189.92
2018-05-10T16:41:06.744Z,100186.85
2018-05-10T16:47:41.832Z,100181.86
2018-05-10T16:53:58.248Z,100168.30
2018-05-10T16:57:00.994Z,100174.71
2018-05-10T17:00:03.652Z,100203.06
2018-05-10T17:03:06.227Z,100222.81
2018-05-10T17:06:08.794Z,100248.86
2018-05-10T17:09:11.342Z,100279.84
2018-05-10T17:12:13.905Z,100296.17
2018-05-10T17:15:17.067Z,100331.58
2018-05-10T17:18:19.589Z,100342.33
2018-05-10T17:21:24.933Z,100331.19
2018-05-10T17:24:27.513Z,100341.03
2018-05-10T17:27:30.131Z,100331.16
2018-05-10T17:30:32.778Z,100330.75
2018-05-10T17:33:35.331Z,100330.76
2018-05-10T17:36:39.002Z,100342.94
2018-05-10T17:39:41.561Z,100356.63
2018-05-10T17:42:44.139Z,100363.78
2018-05-10T17:45:46.718Z,100365.30
2018-05-10T17:48:49.349Z,100367.45
2018-05-10T17:51:53.227Z,100378.86
2018-05-10T17:54:55.867Z,100386.90
2018-05-10T17:58:00.622Z,100399.13
2018-05-10T18:01:07.329Z,100404.58
2018-05-10T18:04:11.720Z,100394.83
2018-05-10T18:07:14.505Z,100397.08
2018-05-10T18:10:17.361Z,100430.97
2018-05-10T18:13:22.280Z,100451.48
2018-05-10T18:16:26.899Z,100444.88
2018-05-10T18:19:32.643Z,100448.20
2018-05-10T18:22:35.414Z,100445.70
2018-05-10T18:25:38.170Z,100457.44
2018-05-10T18:28:43.955Z,100487.31
2018-05-10T18:31:46.847Z,100503.30
2018-05-10T18:34:49.610Z,100506.01
2018-05-10T18:37:52.397Z,100508.52
2018-05-10T18:40:55.417Z,100499.80
2018-05-10T18:43:59.118Z,100493.33
2018-05-10T18:47:07.068Z,100515.50
2018-05-10T18:50:10.100Z,100524.38
2018-05-10T18:53:15.590Z,100540.37
2018-05-10T18:56:19.995Z,100545.39
2018-05-10T18:59:22.871Z,100556.04
2018-05-10T19:02:27.299Z,100556.18
2018-05-10T19:05:30.251Z,100550.94
2018-05-10T19:08:33.046Z,100545.73
2018-05-10T19:11:37.004Z,100541.16
2018-05-10T19:14:39.849Z,100545.58
2018-05-10T19:17:43.568Z,100558.47
2018-05-10T19:20:56.636Z,100560.24
2018-05-10T19:23:59.505Z,100565.30
2018-05-10T19:27:02.361Z,100571.77
2018-05-10T19:30:05.348Z,100573.20
2018-05-10T19:33:10.213Z,100574.22
2018-05-10T19:36:12.864Z,100593.37
2018-05-10T19:39:15.545Z,100598.25
2018-05-10T19:42:18.274Z,100604.32
2018-05-10T19:45:21.141Z,100619.66
2018-05-10T19:48:23.888Z,100632.16
2018-05-10T19:51:27.488Z,100631.86
2018-05-10T19:54:33.860Z,100655.70
2018-05-10T19:57:37.562Z,100665.93
2018-05-10T20:00:40.513Z,100667.90
2018-05-10T20:03:44.106Z,100669.10
2018-05-10T20:06:50.855Z,100666.92
2018-05-10T20:09:54.981Z,100662.68
2018-05-10T20:12:57.809Z,100662.97
2018-05-10T20:16:00.632Z,100668.16
2018-05-10T20:19:03.655Z,100658.00
2018-05-10T20:22:07.331Z,100653.11
2018-05-10T20:25:10.438Z,100649.89
2018-05-10T20:28:13.235Z,100642.97
2018-05-10T20:31:16.044Z,100642.19
2018-05-10T20:34:25.257Z,100645.68
2018-05-10T20:37:28.180Z,100649.05
2018-05-10T20:40:31.542Z,100656.05
2018-05-10T20:43:34.187Z,100670.05
2018-05-10T20:46:38.990Z,100688.99
2018-05-10T20:49:43.505Z,100693.59
2018-05-10T20:52:46.383Z,100702.11
2018-05-10T20:55:50.343Z,100702.68
2018-05-10T20:58:53.125Z,100696.14
2018-05-10T21:01:55.819Z,100691.97
2018-05-10T21:04:58.448Z,100696.97
2018-05-10T21:08:02.365Z,100698.91
2018-05-10T21:11:04.981Z,100701.13
2018-05-10T21:14:07.574Z,100706.34
2018-05-10T21:17:10.152Z,100702.47
2018-05-10T21:20:12.762Z,100701.80
2018-05-10T21:23:15.452Z,100706.09
2018-05-10T21:26:18.118Z,100698.27
2018-05-10T21:29:20.734Z,100698.33
2018-05-10T21:32:23.304Z,100697.02
2018-05-10T21:35:25.928Z,100712.91
2018-05-10T21:38:32.134Z,100707.79
2018-05-10T21:41:34.715Z,100710.27
2018-05-10T21:44:37.334Z,100716.72
2018-05-10T21:47:39.920Z,100724.05
2018-05-10T21:50:46.044Z,100729.13
2018-05-10T21:53:52.015Z,100739.92
2018-05-10T21:56:56.128Z,100751.27
2018-05-10T21:59:58.767Z,100763.34
2018-05-10T22:03:06.077Z,100764.89
2018-05-10T22:06:08.681Z,100769.30
2018-05-10T22:09:11.493Z,100773.02
2018-05-10T22:12:14.114Z,100766.53
2018-05-10T22:15:16.658Z,100769.94
2018-05-10T22:18:19.221Z,100769.14
2018-05-10T22:21:21.922Z,100768.80
2018-05-10T22:24:24.536Z,100770.23
2018-05-10T22:27:27.029Z,100766.05
2018-05-10T22:30:29.611Z,100758.09
2018-05-10T22:33:32.157Z,100764.42
2018-05-10T22:36:34.761Z,100770.46
2018-05-10T22:39:37.320Z,100759.59
2018-05-10T22:42:39.840Z,100767.98
2018-05-10T22:45:42.391Z,100771.67
2018-05-10T22:48:44.901Z,100768.63
2018-05-10T22:51:47.493Z,100764.28
2018-05-10T22:54:50.091Z,100771.38
2018-05-10T22:57:52.660Z,100776.42
2018-05-10T23:00:55.270Z,100774.28
2018-05-10T23:03:57.821Z,100769.81
2018-05-10T23:07:00.403Z,100770.42
2018-05-10T23:10:02.960Z,100771.07
2018-05-10T23:13:05.599Z,100773.94
2018-05-10T23:16:08.171Z,100780.11
2018-05-10T23:19:10.684Z,100787.19
2018-05-10T23:22:13.187Z,100785.55
2018-05-10T23:25:15.720Z,100793.28
2018-05-10T23:28:18.231Z,100794.84
2018-05-10T23:31:20.771Z,100804.56
2018-05-10T23:34:23.318Z,100808.41
2018-05-10T23:37:25.942Z,100812.12
2018-05-10T23:40:28.486Z,100818.91
2018-05-10T23:43:31.021Z,100828.81
2018-05-10T23:46:33.674Z,100824.42
2018-05-10T23:49:36.166Z,100825.41
2018-05-10T23:52:38.732Z,100830.92
2018-05-10T23:55:41.375Z,100828.75
2018-05-10T23:58:43.913Z,100847.02
